sensor_id;sensor_type;location;lat;lon;timestamp;P1;durP1;ratioP1;P2;durP2;ratioP2
37507;SDS011;23360;46.936;15.514;2023-12-29T00:01:22;27.70;;;9.32;;
37507;SDS011;23360;46.936;15.514;2023-12-29T00:03:48;30.33;;;9.02;;
37507;SDS011;23360;46.936;15.514;2023-12-29T00:06:15;21.63;;;7.95;;
37507;SDS011;23360;46.936;15.514;2023-12-29T00:08:42;18.83;;;7.28;;
37507;SDS011;23360;46.936;15.514;2023-12-29T00:11:15;23.90;;;7.88;;
37507;SDS011;23360;46.936;15.514;2023-12-29T00:13:42;21.67;;;8.18;;
37507;SDS011;23360;46.936;15.514;2023-12-29T00:16:09;19.60;;;8.15;;
37507;SDS011;23360;46.936;15.514;2023-12-29T00:18:36;23.17;;;8.80;;
37507;SDS011;23360;46.936;15.514;2023-12-29T00:21:04;24.83;;;8.73;;
37507;SDS011;23360;46.936;15.514;2023-12-29T00:23:33;20.48;;;7.32;;
37507;SDS011;23360;46.936;15.514;2023-12-29T00:25:59;16.98;;;6.28;;
37507;SDS011;23360;46.936;15.514;2023-12-29T00:28:26;14.65;;;7.18;;
37507;SDS011;23360;46.936;15.514;2023-12-29T00:30:53;19.00;;;6.20;;
37507;SDS011;23360;46.936;15.514;2023-12-29T00:33:28;24.63;;;7.05;;
37507;SDS011;23360;46.936;15.514;2023-12-29T00:35:55;14.90;;;6.18;;
37507;SDS011;23360;46.936;15.514;2023-12-29T00:38:22;24.33;;;6.85;;
37507;SDS011;23360;46.936;15.514;2023-12-29T00:40:49;16.98;;;6.50;;
37507;SDS011;23360;46.936;15.514;2023-12-29T00:43:15;20.73;;;6.95;;
37507;SDS011;23360;46.936;15.514;2023-12-29T00:45:44;18.50;;;6.93;;
37507;SDS011;23360;46.936;15.514;2023-12-29T00:48:10;14.82;;;6.72;;
37507;SDS011;23360;46.936;15.514;2023-12-29T00:50:37;16.48;;;6.80;;
37507;SDS011;23360;46.936;15.514;2023-12-29T00:53:04;17.75;;;6.82;;
37507;SDS011;23360;46.936;15.514;2023-12-29T00:55:31;24.63;;;7.28;;
37507;SDS011;23360;46.936;15.514;2023-12-29T00:57:57;17.80;;;6.50;;
37507;SDS011;23360;46.936;15.514;2023-12-29T01:00:25;19.27;;;7.22;;
37507;SDS011;23360;46.936;15.514;2023-12-29T01:02:51;17.73;;;7.28;;
37507;SDS011;23360;46.936;15.514;2023-12-29T01:05:18;21.52;;;6.65;;
37507;SDS011;23360;46.936;15.514;2023-12-29T01:07:45;18.17;;;6.50;;
37507;SDS011;23360;46.936;15.514;2023-12-29T01:10:11;18.83;;;7.53;;
37507;SDS011;23360;46.936;15.514;2023-12-29T01:12:38;21.15;;;6.97;;
37507;SDS011;23360;46.936;15.514;2023-12-29T01:15:05;24.20;;;7.00;;
37507;SDS011;23360;46.936;15.514;2023-12-29T01:17:32;18.70;;;6.70;;
37507;SDS011;23360;46.936;15.514;2023-12-29T01:19:59;19.17;;;7.15;;
37507;SDS011;23360;46.936;15.514;2023-12-29T01:22:26;19.83;;;7.03;;
37507;SDS011;23360;46.936;15.514;2023-12-29T01:24:52;19.52;;;6.55;;
37507;SDS011;23360;46.936;15.514;2023-12-29T01:27:19;16.50;;;6.40;;
37507;SDS011;23360;46.936;15.514;2023-12-29T01:29:46;16.67;;;6.15;;
37507;SDS011;23360;46.936;15.514;2023-12-29T01:32:13;19.85;;;6.82;;
37507;SDS011;23360;46.936;15.514;2023-12-29T01:34:40;16.67;;;7.07;;
37507;SDS011;23360;46.936;15.514;2023-12-29T01:37:07;14.05;;;5.35;;
37507;SDS011;23360;46.936;15.514;2023-12-29T01:39:34;16.85;;;6.35;;
37507;SDS011;23360;46.936;15.514;2023-12-29T01:42:01;17.52;;;6.30;;
37507;SDS011;23360;46.936;15.514;2023-12-29T01:44:28;18.17;;;5.65;;
37507;SDS011;23360;46.936;15.514;2023-12-29T01:46:55;13.20;;;5.05;;
37507;SDS011;23360;46.936;15.514;2023-12-29T01:49:22;22.55;;;6.30;;
37507;SDS011;23360;46.936;15.514;2023-12-29T01:51:51;15.90;;;6.03;;
37507;SDS011;23360;46.936;15.514;2023-12-29T01:54:18;22.00;;;5.75;;
37507;SDS011;23360;46.936;15.514;2023-12-29T01:56:45;17.73;;;6.28;;
37507;SDS011;23360;46.936;15.514;2023-12-29T01:59:12;15.52;;;5.78;;
37507;SDS011;23360;46.936;15.514;2023-12-29T02:01:50;28.98;;;6.38;;
37507;SDS011;23360;46.936;15.514;2023-12-29T02:04:17;16.83;;;6.50;;
37507;SDS011;23360;46.936;15.514;2023-12-29T02:06:44;17.88;;;6.05;;
37507;SDS011;23360;46.936;15.514;2023-12-29T02:09:11;20.25;;;6.75;;
37507;SDS011;23360;46.936;15.514;2023-12-29T02:11:39;23.48;;;7.35;;
37507;SDS011;23360;46.936;15.514;2023-12-29T02:14:06;15.30;;;5.78;;
37507;SDS011;23360;46.936;15.514;2023-12-29T02:16:40;19.17;;;6.97;;
37507;SDS011;23360;46.936;15.514;2023-12-29T02:19:58;14.25;;;6.88;;
37507;SDS011;23360;46.936;15.514;2023-12-29T02:21:59;17.60;;;6.78;;
37507;SDS011;23360;46.936;15.514;2023-12-29T02:24:25;18.63;;;7.50;;
37507;SDS011;23360;46.936;15.514;2023-12-29T02:26:56;18.25;;;6.20;;
37507;SDS011;23360;46.936;15.514;2023-12-29T02:29:24;17.67;;;6.88;;
37507;SDS011;23360;46.936;15.514;2023-12-29T02:31:52;16.00;;;6.38;;
37507;SDS011;23360;46.936;15.514;2023-12-29T02:34:20;15.48;;;6.28;;
37507;SDS011;23360;46.936;15.514;2023-12-29T02:36:48;11.90;;;4.88;;
37507;SDS011;23360;46.936;15.514;2023-12-29T02:39:17;17.83;;;7.13;;
37507;SDS011;23360;46.936;15.514;2023-12-29T02:41:43;15.23;;;5.70;;
37507;SDS011;23360;46.936;15.514;2023-12-29T02:44:10;27.10;;;6.13;;
37507;SDS011;23360;46.936;15.514;2023-12-29T02:46:37;15.60;;;5.53;;
37507;SDS011;23360;46.936;15.514;2023-12-29T02:49:03;11.48;;;4.60;;
37507;SDS011;23360;46.936;15.514;2023-12-29T02:51:30;15.80;;;6.00;;
37507;SDS011;23360;46.936;15.514;2023-12-29T02:53:57;18.85;;;6.32;;
37507;SDS011;23360;46.936;15.514;2023-12-29T02:56:24;17.42;;;5.68;;
37507;SDS011;23360;46.936;15.514;2023-12-29T02:58:50;20.45;;;6.38;;
37507;SDS011;23360;46.936;15.514;2023-12-29T03:01:18;23.70;;;6.90;;
37507;SDS011;23360;46.936;15.514;2023-12-29T03:03:44;20.23;;;6.72;;
37507;SDS011;23360;46.936;15.514;2023-12-29T03:06:11;17.42;;;6.05;;
37507;SDS011;23360;46.936;15.514;2023-12-29T03:08:38;13.43;;;5.28;;
37507;SDS011;23360;46.936;15.514;2023-12-29T03:11:04;13.55;;;5.38;;
37507;SDS011;23360;46.936;15.514;2023-12-29T03:13:31;11.15;;;5.22;;
37507;SDS011;23360;46.936;15.514;2023-12-29T03:15:57;16.35;;;5.18;;
37507;SDS011;23360;46.936;15.514;2023-12-29T03:18:24;16.92;;;6.30;;
37507;SDS011;23360;46.936;15.514;2023-12-29T03:20:51;14.43;;;5.72;;
37507;SDS011;23360;46.936;15.514;2023-12-29T03:23:17;15.98;;;6.20;;
37507;SDS011;23360;46.936;15.514;2023-12-29T03:25:44;15.77;;;6.30;;
37507;SDS011;23360;46.936;15.514;2023-12-29T03:28:11;17.73;;;5.55;;
37507;SDS011;23360;46.936;15.514;2023-12-29T03:30:37;13.02;;;5.60;;
37507;SDS011;23360;46.936;15.514;2023-12-29T03:33:04;13.88;;;5.55;;
37507;SDS011;23360;46.936;15.514;2023-12-29T03:35:32;16.70;;;5.32;;
37507;SDS011;23360;46.936;15.514;2023-12-29T03:37:59;17.40;;;6.32;;
37507;SDS011;23360;46.936;15.514;2023-12-29T03:40:26;16.55;;;5.55;;
37507;SDS011;23360;46.936;15.514;2023-12-29T03:42:52;10.93;;;4.82;;
37507;SDS011;23360;46.936;15.514;2023-12-29T03:45:19;11.02;;;5.05;;
37507;SDS011;23360;46.936;15.514;2023-12-29T03:47:46;13.48;;;4.18;;
37507;SDS011;23360;46.936;15.514;2023-12-29T03:50:12;9.55;;;3.70;;
37507;SDS011;23360;46.936;15.514;2023-12-29T03:52:39;9.55;;;3.50;;
37507;SDS011;23360;46.936;15.514;2023-12-29T03:55:05;11.50;;;3.35;;
37507;SDS011;23360;46.936;15.514;2023-12-29T03:57:32;11.43;;;3.85;;
37507;SDS011;23360;46.936;15.514;2023-12-29T03:59:59;12.90;;;3.83;;
37507;SDS011;23360;46.936;15.514;2023-12-29T04:02:25;17.00;;;3.85;;
37507;SDS011;23360;46.936;15.514;2023-12-29T04:04:52;13.48;;;3.90;;
37507;SDS011;23360;46.936;15.514;2023-12-29T04:07:19;12.15;;;4.55;;
37507;SDS011;23360;46.936;15.514;2023-12-29T04:09:45;14.27;;;4.53;;
37507;SDS011;23360;46.936;15.514;2023-12-29T04:12:12;16.20;;;6.00;;
37507;SDS011;23360;46.936;15.514;2023-12-29T04:14:39;14.07;;;4.47;;
37507;SDS011;23360;46.936;15.514;2023-12-29T04:17:05;10.35;;;3.75;;
37507;SDS011;23360;46.936;15.514;2023-12-29T04:19:40;11.73;;;4.50;;
37507;SDS011;23360;46.936;15.514;2023-12-29T04:22:07;14.82;;;4.88;;
37507;SDS011;23360;46.936;15.514;2023-12-29T04:24:34;13.10;;;3.85;;
37507;SDS011;23360;46.936;15.514;2023-12-29T04:27:01;12.27;;;4.22;;
37507;SDS011;23360;46.936;15.514;2023-12-29T04:29:27;12.00;;;3.58;;
37507;SDS011;23360;46.936;15.514;2023-12-29T04:31:54;17.52;;;4.28;;
37507;SDS011;23360;46.936;15.514;2023-12-29T04:34:20;11.65;;;4.15;;
37507;SDS011;23360;46.936;15.514;2023-12-29T04:36:47;13.05;;;3.95;;
37507;SDS011;23360;46.936;15.514;2023-12-29T04:39:13;15.40;;;5.03;;
37507;SDS011;23360;46.936;15.514;2023-12-29T04:41:40;13.38;;;4.55;;
37507;SDS011;23360;46.936;15.514;2023-12-29T04:44:07;10.20;;;3.92;;
37507;SDS011;23360;46.936;15.514;2023-12-29T04:46:33;13.77;;;4.22;;
37507;SDS011;23360;46.936;15.514;2023-12-29T04:49:01;12.65;;;3.65;;
37507;SDS011;23360;46.936;15.514;2023-12-29T04:51:28;9.85;;;4.00;;
37507;SDS011;23360;46.936;15.514;2023-12-29T04:53:54;11.77;;;4.38;;
37507;SDS011;23360;46.936;15.514;2023-12-29T04:56:21;14.00;;;3.35;;
37507;SDS011;23360;46.936;15.514;2023-12-29T04:58:48;18.88;;;4.32;;
37507;SDS011;23360;46.936;15.514;2023-12-29T05:01:15;9.20;;;3.60;;
37507;SDS011;23360;46.936;15.514;2023-12-29T05:03:41;10.20;;;3.67;;
37507;SDS011;23360;46.936;15.514;2023-12-29T05:06:08;15.55;;;3.95;;
37507;SDS011;23360;46.936;15.514;2023-12-29T05:08:35;11.13;;;3.47;;
37507;SDS011;23360;46.936;15.514;2023-12-29T05:11:02;12.60;;;3.53;;
37507;SDS011;23360;46.936;15.514;2023-12-29T05:13:28;10.38;;;3.92;;
37507;SDS011;23360;46.936;15.514;2023-12-29T05:15:55;12.40;;;4.13;;
37507;SDS011;23360;46.936;15.514;2023-12-29T05:18:22;14.38;;;4.25;;
37507;SDS011;23360;46.936;15.514;2023-12-29T05:20:49;12.98;;;4.40;;
37507;SDS011;23360;46.936;15.514;2023-12-29T05:23:15;10.88;;;4.07;;
37507;SDS011;23360;46.936;15.514;2023-12-29T05:25:42;12.30;;;3.80;;
37507;SDS011;23360;46.936;15.514;2023-12-29T05:28:08;14.35;;;3.22;;
37507;SDS011;23360;46.936;15.514;2023-12-29T05:30:35;8.73;;;4.15;;
37507;SDS011;23360;46.936;15.514;2023-12-29T05:33:02;11.90;;;4.18;;
37507;SDS011;23360;46.936;15.514;2023-12-29T05:35:29;21.23;;;4.78;;
37507;SDS011;23360;46.936;15.514;2023-12-29T05:37:56;12.60;;;4.72;;
37507;SDS011;23360;46.936;15.514;2023-12-29T05:40:23;14.60;;;4.00;;
37507;SDS011;23360;46.936;15.514;2023-12-29T05:42:49;9.07;;;3.80;;
37507;SDS011;23360;46.936;15.514;2023-12-29T05:45:16;16.52;;;4.60;;
37507;SDS011;23360;46.936;15.514;2023-12-29T05:47:43;11.85;;;4.32;;
37507;SDS011;23360;46.936;15.514;2023-12-29T05:50:10;10.75;;;3.63;;
37507;SDS011;23360;46.936;15.514;2023-12-29T05:52:37;8.63;;;3.75;;
37507;SDS011;23360;46.936;15.514;2023-12-29T05:55:03;14.30;;;5.78;;
37507;SDS011;23360;46.936;15.514;2023-12-29T05:57:30;19.02;;;7.05;;
37507;SDS011;23360;46.936;15.514;2023-12-29T05:59:57;17.75;;;7.00;;
37507;SDS011;23360;46.936;15.514;2023-12-29T06:02:23;18.75;;;6.82;;
37507;SDS011;23360;46.936;15.514;2023-12-29T06:04:50;17.02;;;6.32;;
37507;SDS011;23360;46.936;15.514;2023-12-29T06:07:16;16.40;;;6.03;;
37507;SDS011;23360;46.936;15.514;2023-12-29T06:09:43;20.80;;;6.90;;
37507;SDS011;23360;46.936;15.514;2023-12-29T06:12:10;16.58;;;6.53;;
37507;SDS011;23360;46.936;15.514;2023-12-29T06:14:36;15.75;;;5.53;;
37507;SDS011;23360;46.936;15.514;2023-12-29T06:17:03;14.85;;;5.97;;
37507;SDS011;23360;46.936;15.514;2023-12-29T06:19:30;14.70;;;4.82;;
37507;SDS011;23360;46.936;15.514;2023-12-29T06:21:59;15.40;;;5.05;;
37507;SDS011;23360;46.936;15.514;2023-12-29T06:24:25;15.32;;;5.30;;
37507;SDS011;23360;46.936;15.514;2023-12-29T06:26:52;14.05;;;5.13;;
37507;SDS011;23360;46.936;15.514;2023-12-29T06:29:19;12.77;;;5.05;;
37507;SDS011;23360;46.936;15.514;2023-12-29T06:31:46;11.20;;;4.57;;
37507;SDS011;23360;46.936;15.514;2023-12-29T06:34:13;15.07;;;5.15;;
37507;SDS011;23360;46.936;15.514;2023-12-29T06:36:39;14.10;;;5.28;;
37507;SDS011;23360;46.936;15.514;2023-12-29T06:39:06;14.10;;;5.20;;
37507;SDS011;23360;46.936;15.514;2023-12-29T06:41:33;13.43;;;6.50;;
37507;SDS011;23360;46.936;15.514;2023-12-29T06:43:59;13.90;;;4.68;;
37507;SDS011;23360;46.936;15.514;2023-12-29T06:46:26;14.38;;;4.38;;
37507;SDS011;23360;46.936;15.514;2023-12-29T06:48:53;11.75;;;4.72;;
37507;SDS011;23360;46.936;15.514;2023-12-29T06:51:20;17.50;;;5.57;;
37507;SDS011;23360;46.936;15.514;2023-12-29T06:53:49;15.02;;;5.00;;
37507;SDS011;23360;46.936;15.514;2023-12-29T06:56:16;13.65;;;4.60;;
37507;SDS011;23360;46.936;15.514;2023-12-29T06:58:43;10.90;;;4.13;;
37507;SDS011;23360;46.936;15.514;2023-12-29T07:01:11;13.20;;;4.38;;
37507;SDS011;23360;46.936;15.514;2023-12-29T07:03:37;15.13;;;3.65;;
37507;SDS011;23360;46.936;15.514;2023-12-29T07:06:04;13.25;;;3.42;;
37507;SDS011;23360;46.936;15.514;2023-12-29T07:08:31;12.15;;;4.35;;
37507;SDS011;23360;46.936;15.514;2023-12-29T07:10:58;15.38;;;4.65;;
37507;SDS011;23360;46.936;15.514;2023-12-29T07:13:25;8.30;;;3.58;;
37507;SDS011;23360;46.936;15.514;2023-12-29T07:15:51;8.48;;;3.22;;
37507;SDS011;23360;46.936;15.514;2023-12-29T07:18:18;10.90;;;3.80;;
37507;SDS011;23360;46.936;15.514;2023-12-29T07:20:45;13.68;;;4.15;;
37507;SDS011;23360;46.936;15.514;2023-12-29T07:23:11;14.75;;;4.45;;
37507;SDS011;23360;46.936;15.514;2023-12-29T07:25:38;9.40;;;4.38;;
37507;SDS011;23360;46.936;15.514;2023-12-29T07:28:05;13.95;;;4.75;;
37507;SDS011;23360;46.936;15.514;2023-12-29T07:30:31;11.32;;;3.83;;
37507;SDS011;23360;46.936;15.514;2023-12-29T07:32:58;13.60;;;4.28;;
37507;SDS011;23360;46.936;15.514;2023-12-29T07:35:25;9.60;;;3.58;;
37507;SDS011;23360;46.936;15.514;2023-12-29T07:37:52;10.40;;;3.85;;
37507;SDS011;23360;46.936;15.514;2023-12-29T07:40:19;15.13;;;5.57;;
37507;SDS011;23360;46.936;15.514;2023-12-29T07:42:45;12.88;;;4.90;;
37507;SDS011;23360;46.936;15.514;2023-12-29T07:45:15;12.73;;;4.22;;
37507;SDS011;23360;46.936;15.514;2023-12-29T07:47:42;9.63;;;4.35;;
37507;SDS011;23360;46.936;15.514;2023-12-29T07:50:09;14.57;;;4.05;;
37507;SDS011;23360;46.936;15.514;2023-12-29T07:52:35;18.63;;;3.42;;
37507;SDS011;23360;46.936;15.514;2023-12-29T07:55:02;14.75;;;3.83;;
37507;SDS011;23360;46.936;15.514;2023-12-29T07:57:29;11.60;;;3.75;;
37507;SDS011;23360;46.936;15.514;2023-12-29T07:59:55;11.43;;;4.05;;
37507;SDS011;23360;46.936;15.514;2023-12-29T08:02:23;16.60;;;6.10;;
37507;SDS011;23360;46.936;15.514;2023-12-29T08:04:49;14.75;;;6.32;;
37507;SDS011;23360;46.936;15.514;2023-12-29T08:07:16;15.18;;;5.22;;
37507;SDS011;23360;46.936;15.514;2023-12-29T08:09:43;15.75;;;5.70;;
37507;SDS011;23360;46.936;15.514;2023-12-29T08:12:11;22.38;;;6.35;;
37507;SDS011;23360;46.936;15.514;2023-12-29T08:14:37;19.08;;;5.45;;
37507;SDS011;23360;46.936;15.514;2023-12-29T08:17:04;9.98;;;3.65;;
37507;SDS011;23360;46.936;15.514;2023-12-29T08:19:31;15.18;;;3.60;;
37507;SDS011;23360;46.936;15.514;2023-12-29T08:21:58;10.65;;;3.90;;
37507;SDS011;23360;46.936;15.514;2023-12-29T08:24:25;9.20;;;3.67;;
37507;SDS011;23360;46.936;15.514;2023-12-29T08:26:52;9.45;;;3.40;;
37507;SDS011;23360;46.936;15.514;2023-12-29T08:29:18;8.20;;;3.05;;
37507;SDS011;23360;46.936;15.514;2023-12-29T08:31:46;9.45;;;3.35;;
37507;SDS011;23360;46.936;15.514;2023-12-29T08:34:12;8.60;;;3.17;;
37507;SDS011;23360;46.936;15.514;2023-12-29T08:36:39;10.23;;;3.17;;
37507;SDS011;23360;46.936;15.514;2023-12-29T08:39:05;9.10;;;3.10;;
37507;SDS011;23360;46.936;15.514;2023-12-29T08:41:32;11.20;;;3.83;;
37507;SDS011;23360;46.936;15.514;2023-12-29T08:43:59;12.45;;;3.97;;
37507;SDS011;23360;46.936;15.514;2023-12-29T08:46:25;11.05;;;3.50;;
37507;SDS011;23360;46.936;15.514;2023-12-29T08:48:52;14.85;;;4.30;;
37507;SDS011;23360;46.936;15.514;2023-12-29T08:51:19;15.15;;;5.45;;
37507;SDS011;23360;46.936;15.514;2023-12-29T08:53:46;25.88;;;7.40;;
37507;SDS011;23360;46.936;15.514;2023-12-29T08:56:12;20.17;;;7.35;;
37507;SDS011;23360;46.936;15.514;2023-12-29T08:58:40;20.88;;;6.97;;
37507;SDS011;23360;46.936;15.514;2023-12-29T09:01:07;10.70;;;4.53;;
37507;SDS011;23360;46.936;15.514;2023-12-29T09:03:34;13.18;;;4.32;;
37507;SDS011;23360;46.936;15.514;2023-12-29T09:06:01;14.27;;;5.57;;
37507;SDS011;23360;46.936;15.514;2023-12-29T09:08:29;14.52;;;4.53;;
37507;SDS011;23360;46.936;15.514;2023-12-29T09:10:55;14.38;;;6.55;;
37507;SDS011;23360;46.936;15.514;2023-12-29T09:13:22;18.50;;;5.40;;
37507;SDS011;23360;46.936;15.514;2023-12-29T09:15:51;10.05;;;3.22;;
37507;SDS011;23360;46.936;15.514;2023-12-29T09:18:18;20.13;;;4.65;;
37507;SDS011;23360;46.936;15.514;2023-12-29T09:20:45;22.85;;;7.93;;
37507;SDS011;23360;46.936;15.514;2023-12-29T09:23:11;12.40;;;4.25;;
37507;SDS011;23360;46.936;15.514;2023-12-29T09:25:38;14.38;;;4.30;;
37507;SDS011;23360;46.936;15.514;2023-12-29T09:28:05;12.93;;;3.33;;
37507;SDS011;23360;46.936;15.514;2023-12-29T09:30:32;9.45;;;3.45;;
37507;SDS011;23360;46.936;15.514;2023-12-29T09:32:58;12.20;;;3.40;;
37507;SDS011;23360;46.936;15.514;2023-12-29T09:35:25;8.30;;;2.80;;
37507;SDS011;23360;46.936;15.514;2023-12-29T09:37:52;12.55;;;4.07;;
37507;SDS011;23360;46.936;15.514;2023-12-29T09:40:19;16.83;;;6.20;;
37507;SDS011;23360;46.936;15.514;2023-12-29T09:42:46;12.13;;;3.63;;
37507;SDS011;23360;46.936;15.514;2023-12-29T09:45:14;10.32;;;3.85;;
37507;SDS011;23360;46.936;15.514;2023-12-29T09:47:42;9.10;;;3.60;;
37507;SDS011;23360;46.936;15.514;2023-12-29T09:50:12;9.73;;;3.28;;
37507;SDS011;23360;46.936;15.514;2023-12-29T09:52:39;9.25;;;3.38;;
37507;SDS011;23360;46.936;15.514;2023-12-29T09:55:10;9.00;;;2.47;;
37507;SDS011;23360;46.936;15.514;2023-12-29T09:57:37;19.63;;;5.85;;
37507;SDS011;23360;46.936;15.514;2023-12-29T10:00:05;12.30;;;4.57;;
37507;SDS011;23360;46.936;15.514;2023-12-29T10:02:32;10.77;;;3.30;;
37507;SDS011;23360;46.936;15.514;2023-12-29T10:05:00;7.50;;;2.92;;
37507;SDS011;23360;46.936;15.514;2023-12-29T10:07:28;10.20;;;3.33;;
37507;SDS011;23360;46.936;15.514;2023-12-29T10:09:57;8.00;;;3.08;;
37507;SDS011;23360;46.936;15.514;2023-12-29T10:12:25;13.60;;;3.95;;
37507;SDS011;23360;46.936;15.514;2023-12-29T10:17:24;10.38;;;3.70;;
37507;SDS011;23360;46.936;15.514;2023-12-29T10:20:00;8.27;;;2.92;;
37507;SDS011;23360;46.936;15.514;2023-12-29T10:22:30;8.75;;;3.05;;
37507;SDS011;23360;46.936;15.514;2023-12-29T10:25:00;10.80;;;3.95;;
37507;SDS011;23360;46.936;15.514;2023-12-29T10:27:27;8.02;;;3.28;;
37507;SDS011;23360;46.936;15.514;2023-12-29T10:29:53;11.93;;;4.90;;
37507;SDS011;23360;46.936;15.514;2023-12-29T10:32:20;8.27;;;3.13;;
37507;SDS011;23360;46.936;15.514;2023-12-29T10:34:47;8.55;;;3.00;;
37507;SDS011;23360;46.936;15.514;2023-12-29T10:37:13;8.63;;;3.30;;
37507;SDS011;23360;46.936;15.514;2023-12-29T10:39:55;7.95;;;3.03;;
37507;SDS011;23360;46.936;15.514;2023-12-29T10:42:22;8.43;;;3.28;;
37507;SDS011;23360;46.936;15.514;2023-12-29T10:44:48;9.80;;;2.67;;
37507;SDS011;23360;46.936;15.514;2023-12-29T10:47:30;8.63;;;2.65;;
37507;SDS011;23360;46.936;15.514;2023-12-29T10:49:59;8.63;;;2.35;;
37507;SDS011;23360;46.936;15.514;2023-12-29T10:52:27;14.38;;;3.10;;
37507;SDS011;23360;46.936;15.514;2023-12-29T10:55:03;11.23;;;3.25;;
37507;SDS011;23360;46.936;15.514;2023-12-29T10:57:30;8.48;;;2.47;;
37507;SDS011;23360;46.936;15.514;2023-12-29T10:59:56;6.82;;;2.00;;
37507;SDS011;23360;46.936;15.514;2023-12-29T11:02:23;13.43;;;3.15;;
37507;SDS011;23360;46.936;15.514;2023-12-29T11:04:50;10.68;;;3.50;;
37507;SDS011;23360;46.936;15.514;2023-12-29T11:07:30;12.55;;;3.38;;
37507;SDS011;23360;46.936;15.514;2023-12-29T11:10:00;10.10;;;3.28;;
37507;SDS011;23360;46.936;15.514;2023-12-29T11:12:27;15.73;;;2.50;;
37507;SDS011;23360;46.936;15.514;2023-12-29T11:14:54;6.90;;;2.53;;
37507;SDS011;23360;46.936;15.514;2023-12-29T11:17:20;8.23;;;3.28;;
37507;SDS011;23360;46.936;15.514;2023-12-29T11:19:47;7.13;;;2.80;;
37507;SDS011;23360;46.936;15.514;2023-12-29T11:22:17;7.63;;;2.80;;
37507;SDS011;23360;46.936;15.514;2023-12-29T11:24:46;10.05;;;3.85;;
37507;SDS011;23360;46.936;15.514;2023-12-29T11:27:12;7.85;;;3.22;;
37507;SDS011;23360;46.936;15.514;2023-12-29T11:29:39;10.02;;;3.47;;
37507;SDS011;23360;46.936;15.514;2023-12-29T11:32:10;10.32;;;2.97;;
37507;SDS011;23360;46.936;15.514;2023-12-29T11:34:39;13.27;;;2.90;;
37507;SDS011;23360;46.936;15.514;2023-12-29T11:37:12;9.93;;;3.38;;
37507;SDS011;23360;46.936;15.514;2023-12-29T11:39:45;9.85;;;3.50;;
37507;SDS011;23360;46.936;15.514;2023-12-29T11:42:19;6.93;;;2.72;;
37507;SDS011;23360;46.936;15.514;2023-12-29T11:44:47;8.35;;;3.53;;
37507;SDS011;23360;46.936;15.514;2023-12-29T11:47:34;24.35;;;3.55;;
37507;SDS011;23360;46.936;15.514;2023-12-29T11:50:05;12.75;;;3.00;;
37507;SDS011;23360;46.936;15.514;2023-12-29T11:52:36;7.35;;;2.65;;
37507;SDS011;23360;46.936;15.514;2023-12-29T11:55:12;12.23;;;3.00;;
37507;SDS011;23360;46.936;15.514;2023-12-29T11:57:39;9.38;;;3.38;;
37507;SDS011;23360;46.936;15.514;2023-12-29T12:00:07;11.40;;;3.38;;
37507;SDS011;23360;46.936;15.514;2023-12-29T12:02:34;10.38;;;2.50;;
37507;SDS011;23360;46.936;15.514;2023-12-29T12:05:01;8.23;;;2.83;;
37507;SDS011;23360;46.936;15.514;2023-12-29T12:12:41;6.88;;;2.60;;
37507;SDS011;23360;46.936;15.514;2023-12-29T12:17:53;7.97;;;2.40;;
37507;SDS011;23360;46.936;15.514;2023-12-29T12:20:19;6.80;;;2.42;;
37507;SDS011;23360;46.936;15.514;2023-12-29T12:22:48;7.65;;;2.80;;
37507;SDS011;23360;46.936;15.514;2023-12-29T12:25:16;10.63;;;3.05;;
37507;SDS011;23360;46.936;15.514;2023-12-29T12:27:43;26.80;;;4.40;;
37507;SDS011;23360;46.936;15.514;2023-12-29T12:30:10;9.80;;;3.58;;
37507;SDS011;23360;46.936;15.514;2023-12-29T12:32:37;8.15;;;3.17;;
37507;SDS011;23360;46.936;15.514;2023-12-29T12:35:04;12.27;;;3.65;;
37507;SDS011;23360;46.936;15.514;2023-12-29T12:37:41;8.85;;;3.33;;
37507;SDS011;23360;46.936;15.514;2023-12-29T12:40:08;11.23;;;3.33;;
37507;SDS011;23360;46.936;15.514;2023-12-29T12:42:40;11.23;;;3.38;;
37507;SDS011;23360;46.936;15.514;2023-12-29T12:45:11;7.78;;;3.13;;
37507;SDS011;23360;46.936;15.514;2023-12-29T12:47:45;7.18;;;3.33;;
37507;SDS011;23360;46.936;15.514;2023-12-29T12:50:12;11.30;;;3.10;;
37507;SDS011;23360;46.936;15.514;2023-12-29T12:52:39;6.40;;;2.80;;
37507;SDS011;23360;46.936;15.514;2023-12-29T12:55:06;10.95;;;3.40;;
37507;SDS011;23360;46.936;15.514;2023-12-29T12:57:34;7.35;;;3.42;;
37507;SDS011;23360;46.936;15.514;2023-12-29T13:00:01;10.77;;;3.50;;
37507;SDS011;23360;46.936;15.514;2023-12-29T13:02:29;7.60;;;3.33;;
37507;SDS011;23360;46.936;15.514;2023-12-29T13:04:56;8.23;;;3.10;;
37507;SDS011;23360;46.936;15.514;2023-12-29T13:07:23;8.10;;;3.15;;
37507;SDS011;23360;46.936;15.514;2023-12-29T13:09:50;8.65;;;3.53;;
37507;SDS011;23360;46.936;15.514;2023-12-29T13:12:18;7.07;;;2.90;;
37507;SDS011;23360;46.936;15.514;2023-12-29T13:14:45;8.20;;;2.75;;
37507;SDS011;23360;46.936;15.514;2023-12-29T13:17:14;10.23;;;3.63;;
37507;SDS011;23360;46.936;15.514;2023-12-29T13:19:44;10.13;;;3.38;;
37507;SDS011;23360;46.936;15.514;2023-12-29T13:22:11;11.70;;;3.53;;
37507;SDS011;23360;46.936;15.514;2023-12-29T13:24:45;16.08;;;3.92;;
37507;SDS011;23360;46.936;15.514;2023-12-29T13:27:14;10.48;;;4.03;;
37507;SDS011;23360;46.936;15.514;2023-12-29T13:29:42;8.00;;;3.53;;
37507;SDS011;23360;46.936;15.514;2023-12-29T13:32:14;10.38;;;4.10;;
37507;SDS011;23360;46.936;15.514;2023-12-29T13:34:50;9.82;;;3.70;;
37507;SDS011;23360;46.936;15.514;2023-12-29T13:39:52;15.50;;;4.07;;
37507;SDS011;23360;46.936;15.514;2023-12-29T13:42:19;8.07;;;3.90;;
37507;SDS011;23360;46.936;15.514;2023-12-29T13:44:48;13.13;;;4.10;;
37507;SDS011;23360;46.936;15.514;2023-12-29T13:47:16;10.90;;;4.47;;
37507;SDS011;23360;46.936;15.514;2023-12-29T13:49:43;12.75;;;4.45;;
37507;SDS011;23360;46.936;15.514;2023-12-29T13:52:10;10.27;;;4.20;;
37507;SDS011;23360;46.936;15.514;2023-12-29T13:54:43;15.68;;;4.18;;
37507;SDS011;23360;46.936;15.514;2023-12-29T13:57:11;13.07;;;4.15;;
37507;SDS011;23360;46.936;15.514;2023-12-29T13:59:37;11.65;;;4.13;;
37507;SDS011;23360;46.936;15.514;2023-12-29T14:04:46;10.40;;;4.13;;
37507;SDS011;23360;46.936;15.514;2023-12-29T14:07:13;12.30;;;4.78;;
37507;SDS011;23360;46.936;15.514;2023-12-29T14:09:41;11.82;;;4.10;;
37507;SDS011;23360;46.936;15.514;2023-12-29T14:12:07;15.00;;;4.22;;
37507;SDS011;23360;46.936;15.514;2023-12-29T14:14:34;13.75;;;4.30;;
37507;SDS011;23360;46.936;15.514;2023-12-29T14:17:01;66.82;;;5.30;;
37507;SDS011;23360;46.936;15.514;2023-12-29T14:19:34;11.98;;;3.65;;
37507;SDS011;23360;46.936;15.514;2023-12-29T14:22:00;8.65;;;3.75;;
37507;SDS011;23360;46.936;15.514;2023-12-29T14:24:27;9.38;;;3.97;;
37507;SDS011;23360;46.936;15.514;2023-12-29T14:26:54;9.90;;;3.95;;
37507;SDS011;23360;46.936;15.514;2023-12-29T14:29:26;12.00;;;4.80;;
37507;SDS011;23360;46.936;15.514;2023-12-29T14:31:52;9.65;;;4.43;;
37507;SDS011;23360;46.936;15.514;2023-12-29T14:34:20;19.63;;;4.65;;
37507;SDS011;23360;46.936;15.514;2023-12-29T14:36:47;9.63;;;4.40;;
37507;SDS011;23360;46.936;15.514;2023-12-29T14:39:13;10.18;;;4.05;;
37507;SDS011;23360;46.936;15.514;2023-12-29T14:41:42;8.95;;;3.83;;